createdAt,value
2023-05-17T00:00:51.575Z,67697.91
2023-05-17T00:03:21.621Z,67693.97
2023-05-17T00:05:49.076Z,67688.53
2023-05-17T00:08:16.586Z,67695.09
2023-05-17T00:10:44.023Z,67695.66
2023-05-17T00:13:11.588Z,67698.47
2023-05-17T00:15:39.063Z,67699.59
2023-05-17T00:18:06.607Z,67700.19
2023-05-17T00:20:34.938Z,67692.47
2023-05-17T00:23:03.282Z,67691.16
2023-05-17T00:25:30.905Z,67693.97
2023-05-17T00:27:58.677Z,67686.97
2023-05-17T00:30:26.426Z,67689.44
2023-05-17T00:32:53.963Z,67685.69
2023-05-17T00:35:21.792Z,67682.88
2023-05-17T00:37:49.229Z,67678.94
2023-05-17T00:40:16.622Z,67679.50
2023-05-17T00:42:44.827Z,67685.88
2023-05-17T00:45:12.599Z,67686.97
2023-05-17T00:47:41.082Z,67689.81
2023-05-17T00:50:09.429Z,67680.81
2023-05-17T00:52:36.886Z,67679.50
2023-05-17T00:55:04.702Z,67682.88
2023-05-17T00:57:32.437Z,67679.31
2023-05-17T01:00:02.055Z,67679.31
2023-05-17T01:02:29.848Z,67684.94
2023-05-17T01:04:57.954Z,67675.19
2023-05-17T01:07:25.482Z,67626.50
2023-05-17T01:09:53.589Z,67677.59
2023-05-17T01:12:58.927Z,67672.72
2023-05-17T01:15:32.241Z,67667.28
2023-05-17T01:18:18.331Z,67671.41
2023-05-17T01:20:49.221Z,67664.25
2023-05-17T01:23:35.027Z,67668.03
2023-05-17T01:26:17.478Z,67661.81
2023-05-17T01:28:52.909Z,67655.03
2023-05-17T01:31:21.111Z,67644.72
2023-05-17T01:33:48.800Z,67645.66
2023-05-17T01:36:16.383Z,67647.16
2023-05-17T01:38:43.822Z,67645.09
2023-05-17T01:41:18.254Z,67645.09
2023-05-17T01:44:00.591Z,67642.84
2023-05-17T01:46:41.930Z,67637.56
2023-05-17T01:49:09.386Z,67644.69
2023-05-17T01:51:55.005Z,67639.81
2023-05-17T01:54:24.979Z,67626.13
2023-05-17T01:56:58.633Z,67625.72
2023-05-17T01:59:30.201Z,67615.03
2023-05-17T02:02:06.488Z,67611.63
2023-05-17T02:04:33.928Z,67600.53
2023-05-17T02:07:04.584Z,67594.72
2023-05-17T02:09:32.087Z,67586.66
2023-05-17T02:12:00.010Z,67587.16
2023-05-17T02:14:27.475Z,67583.78
2023-05-17T02:16:54.794Z,67583.44
2023-05-17T02:19:22.325Z,67581.19
2023-05-17T02:21:49.849Z,67577.44
2023-05-17T02:24:17.350Z,67574.63
2023-05-17T02:26:46.033Z,67577.25
2023-05-17T02:29:13.535Z,67575.53
2023-05-17T02:31:41.349Z,67573.28
2023-05-17T02:34:08.813Z,67574.03
2023-05-17T02:36:36.218Z,67574.97
2023-05-17T02:39:03.874Z,67571.59
2023-05-17T02:41:32.749Z,67574.03
2023-05-17T02:44:00.080Z,67575.38
2023-05-17T02:46:27.336Z,67583.44
2023-05-17T02:48:54.791Z,67578.56
2023-05-17T02:51:22.192Z,67580.59
2023-05-17T02:53:50.005Z,67580.59
2023-05-17T02:56:17.582Z,67577.78
2023-05-17T02:58:45.239Z,67576.09
2023-05-17T03:01:12.846Z,67572.00
2023-05-17T03:03:40.426Z,67573.28
2023-05-17T03:06:08.423Z,67577.25
2023-05-17T03:08:35.983Z,67578.56
2023-05-17T03:11:04.447Z,67581.94
2023-05-17T03:13:34.315Z,67581.38
2023-05-17T03:16:02.652Z,67577.44
2023-05-17T03:18:30.457Z,67572.00
2023-05-17T03:20:58.692Z,67567.06
2023-05-17T03:23:26.381Z,67563.34
2023-05-17T03:25:59.272Z,67566.53
2023-05-17T03:28:29.412Z,67562.78
2023-05-17T03:30:57.654Z,67562.78
2023-05-17T03:33:27.253Z,67565.97
2023-05-17T03:35:54.762Z,67561.09
2023-05-17T03:38:23.325Z,67559.97
2023-05-17T03:40:53.362Z,67564.28
2023-05-17T03:43:21.656Z,67568.41
2023-05-17T03:45:49.996Z,67571.59
2023-05-17T03:48:18.620Z,67578.94
2023-05-17T03:50:46.311Z,67580.97
2023-05-17T03:53:13.912Z,67579.69
2023-05-17T03:55:41.374Z,67591.13
2023-05-17T03:58:09.082Z,67596.41
2023-05-17T04:00:36.562Z,67596.81
2023-05-17T04:03:13.094Z,67601.09
2023-05-17T04:05:45.784Z,67601.69
2023-05-17T04:08:17.549Z,67598.28
2023-05-17T04:10:45.250Z,67608.59
2023-05-17T04:13:13.242Z,67606.00
2023-05-17T04:15:40.988Z,67609.00
2023-05-17T04:18:09.069Z,67615.00
2023-05-17T04:20:36.625Z,67621.97
2023-05-17T04:23:04.535Z,67630.44
2023-05-17T04:25:34.910Z,67644.13
2023-05-17T04:28:03.795Z,67647.91
2023-05-17T04:30:31.404Z,67657.50
2023-05-17T04:32:59.238Z,67672.88
2023-05-17T04:35:28.814Z,67688.88
2023-05-17T04:37:57.266Z,67697.34
2023-05-17T04:40:24.889Z,67714.09
2023-05-17T04:42:52.446Z,67776.19
2023-05-17T04:45:20.751Z,67885.00
2023-05-17T04:47:51.309Z,67949.25
2023-05-17T04:50:19.924Z,67943.59
2023-05-17T04:52:47.682Z,67983.72
2023-05-17T04:55:15.260Z,68014.09
2023-05-17T04:57:44.392Z,68024.06
2023-05-17T05:00:18.931Z,67983.16
2023-05-17T05:02:51.661Z,67950.00
2023-05-17T05:05:20.702Z,67927.78
2023-05-17T05:07:48.558Z,67925.50
2023-05-17T05:10:16.747Z,67940.97
2023-05-17T05:12:45.006Z,67957.72
2023-05-17T05:15:13.624Z,67972.59
2023-05-17T05:17:44.143Z,67971.88
2023-05-17T05:20:14.153Z,67985.41
2023-05-17T05:22:41.751Z,67995.03
2023-05-17T05:25:09.917Z,67979.41
2023-05-17T05:27:38.071Z,67942.84
2023-05-17T05:30:06.046Z,67937.78
2023-05-17T05:32:34.840Z,67932.47
2023-05-17T05:35:02.468Z,67953.75
2023-05-17T05:37:30.194Z,68014.84
2023-05-17T05:39:57.796Z,68049.53
2023-05-17T05:42:25.422Z,68072.34
2023-05-17T05:44:53.204Z,68042.94
2023-05-17T05:47:21.617Z,68038.97
2023-05-17T05:49:49.186Z,68050.47
2023-05-17T05:52:16.808Z,68102.72
2023-05-17T05:54:46.132Z,68129.31
2023-05-17T05:57:14.324Z,68132.94
2023-05-17T05:59:41.746Z,68139.69
2023-05-17T06:02:09.171Z,68152.53
2023-05-17T06:04:45.307Z,68143.66
2023-05-17T06:07:17.060Z,68140.47
2023-05-17T06:09:44.624Z,68148.00
2023-05-17T06:12:12.596Z,68172.53
2023-05-17T06:14:40.109Z,68175.94
2023-05-17T06:17:07.872Z,68215.75
2023-05-17T06:19:35.566Z,68230.13
2023-05-17T06:22:03.324Z,68255.41
2023-05-17T06:24:30.864Z,68296.19
2023-05-17T06:26:58.355Z,68326.81
2023-05-17T06:29:26.531Z,68436.28
2023-05-17T06:31:56.599Z,68479.75
2023-05-17T06:34:24.312Z,68543.53
2023-05-17T06:36:52.317Z,68601.44
2023-05-17T06:39:19.830Z,68664.53
2023-05-17T06:41:48.338Z,68623.97
2023-05-17T06:44:18.166Z,68577.22
2023-05-17T06:46:45.786Z,68510.59
2023-05-17T06:49:13.339Z,68478.81
2023-05-17T06:51:40.812Z,68418.88
2023-05-17T06:54:08.660Z,68355.75
2023-05-17T06:56:36.224Z,68331.19
2023-05-17T06:59:04.915Z,68259.38
2023-05-17T07:01:32.851Z,68239.16
2023-05-17T07:04:00.619Z,68293.56
2023-05-17T07:06:28.215Z,68326.03
2023-05-17T07:08:55.676Z,68255.59
2023-05-17T07:11:23.283Z,68234.66
2023-05-17T07:13:52.817Z,68221.63
2023-05-17T07:16:25.123Z,68292.06
2023-05-17T07:18:52.967Z,68359.91
2023-05-17T07:21:20.554Z,68381.44
2023-05-17T07:23:48.337Z,68402.63
2023-05-17T07:26:15.971Z,68411.13
2023-05-17T07:28:44.502Z,68427.56
2023-05-17T07:31:12.675Z,68470.69
2023-05-17T07:33:40.612Z,68430.22
2023-05-17T07:36:08.654Z,68446.09
2023-05-17T07:38:36.464Z,68528.03
2023-05-17T07:41:04.762Z,68585.94
2023-05-17T07:43:32.600Z,68468.78
2023-05-17T07:46:00.184Z,68456.50
2023-05-17T07:48:27.778Z,68445.72
2023-05-17T07:50:55.368Z,68457.06
2023-05-17T07:53:23.341Z,68490.91
2023-05-17T07:55:50.839Z,68561.72
2023-05-17T07:58:19.561Z,68591.41
2023-05-17T08:00:47.201Z,68591.41
2023-05-17T08:03:17.052Z,68649.72
2023-05-17T08:05:45.087Z,68627.78
2023-05-17T08:08:12.675Z,68581.97
2023-05-17T08:10:40.539Z,68538.78
2023-05-17T08:13:08.005Z,68495.25
2023-05-17T08:15:35.508Z,68430.22
2023-05-17T08:18:05.755Z,68446.09
2023-05-17T08:20:33.585Z,68501.31
2023-05-17T08:23:01.078Z,68528.59
2023-05-17T08:25:29.031Z,68537.09
2023-05-17T08:27:56.594Z,68417.94
2023-05-17T08:30:29.001Z,68346.66
2023-05-17T08:32:59.596Z,68273.94
2023-05-17T08:35:29.053Z,68302.81
2023-05-17T08:37:56.890Z,68323.41
2023-05-17T08:40:24.672Z,68300.53
2023-05-17T08:42:52.805Z,68241.63
2023-05-17T08:45:20.259Z,68206.31
2023-05-17T08:47:49.277Z,68183.88
2023-05-17T08:50:17.676Z,68248.41
2023-05-17T08:52:46.524Z,68305.84
2023-05-17T08:55:16.752Z,68357.25
2023-05-17T08:57:45.167Z,68431.53
2023-05-17T09:00:17.288Z,68477.69
2023-05-17T09:02:44.876Z,68533.09
2023-05-17T09:05:16.736Z,68530.84
2023-05-17T09:07:44.936Z,68509.69
2023-05-17T09:10:13.715Z,68403.94
2023-05-17T09:12:41.294Z,68326.44
2023-05-17T09:15:24.261Z,68290.34
2023-05-17T09:17:55.412Z,68266.94
2023-05-17T09:20:34.531Z,68270.31
2023-05-17T09:23:13.541Z,68343.06
2023-05-17T09:25:48.852Z,68441.38
2023-05-17T09:28:19.613Z,68403.19
2023-05-17T09:30:50.430Z,68383.34
2023-05-17T09:33:22.199Z,68359.31
2023-05-17T09:35:50.337Z,68350.84
2023-05-17T09:38:17.892Z,68298.28
2023-05-17T09:40:48.397Z,68251.06
2023-05-17T09:43:23.114Z,68238.22
2023-05-17T09:45:58.097Z,68240.53
2023-05-17T09:48:28.327Z,68288.84
2023-05-17T09:50:55.816Z,68283.56
2023-05-17T09:53:28.470Z,68299.59
2023-05-17T09:56:06.067Z,68281.09
2023-05-17T09:58:37.405Z,68289.78
2023-05-17T10:01:07.849Z,68322.09
2023-05-17T10:03:39.437Z,68374.25
2023-05-17T10:06:13.275Z,68390.88
2023-05-17T10:08:51.916Z,68486.56
2023-05-17T10:11:25.017Z,68563.22
2023-05-17T10:14:05.433Z,68495.66
2023-05-17T10:16:34.817Z,68443.84
2023-05-17T10:19:03.994Z,68420.75
2023-05-17T10:21:32.611Z,68438.34
2023-05-17T10:24:03.809Z,68587.63
2023-05-17T10:26:31.914Z,68662.63
2023-05-17T10:29:01.733Z,68688.00
2023-05-17T10:31:34.347Z,68683.84
2023-05-17T10:34:03.376Z,68704.28
2023-05-17T10:36:31.439Z,68683.66
2023-05-17T10:39:00.260Z,68565.88
2023-05-17T10:41:32.483Z,68475.22
2023-05-17T10:44:03.668Z,68399.59
2023-05-17T10:46:31.838Z,68378.22
2023-05-17T10:49:01.798Z,68461.78
2023-05-17T10:51:34.880Z,68588.75
2023-05-17T10:54:13.304Z,68684.22
2023-05-17T10:56:42.902Z,68627.78
2023-05-17T10:59:28.212Z,68513.09
2023-05-17T11:01:58.744Z,68461.97
2023-05-17T11:04:33.741Z,68452.53
2023-05-17T11:07:33.035Z,68464.44
2023-05-17T11:10:03.728Z,68548.84
2023-05-17T11:12:36.510Z,68508.53
2023-05-17T11:15:16.513Z,68566.44
2023-05-17T11:17:44.448Z,68688.19
2023-05-17T11:20:16.862Z,68697.13
2023-05-17T11:22:51.488Z,68681.75
2023-05-17T11:25:19.653Z,68668.88
2023-05-17T11:27:49.735Z,68545.25
2023-05-17T11:30:26.935Z,68503.41
2023-05-17T11:33:00.707Z,68493.38
2023-05-17T11:35:32.387Z,68485.44
2023-05-17T11:38:21.902Z,68606.56
2023-05-17T11:40:53.682Z,68673.03
2023-05-17T11:43:27.551Z,68620.00
2023-05-17T11:46:04.960Z,68645.94
2023-05-17T11:48:33.368Z,68539.56
2023-05-17T11:51:02.387Z,68545.06
2023-05-17T11:53:32.053Z,68622.25
2023-05-17T11:56:04.526Z,68685.53
2023-05-17T11:58:32.404Z,68720.59
2023-05-17T12:00:59.848Z,68699.00
2023-05-17T12:03:29.417Z,68709.97
2023-05-17T12:06:13.388Z,68737.06
2023-05-17T12:08:45.187Z,68691.81
2023-05-17T12:11:15.891Z,68661.88
2023-05-17T12:13:44.231Z,68591.63
2023-05-17T12:16:16.828Z,68592.94
2023-05-17T12:18:49.794Z,68690.28
2023-05-17T12:21:19.200Z,68730.06
2023-05-17T12:23:50.336Z,68738.41
2023-05-17T12:26:20.302Z,68686.31
2023-05-17T12:28:59.014Z,68618.13
2023-05-17T12:31:34.923Z,68640.44
2023-05-17T12:34:05.295Z,68711.69
2023-05-17T12:36:34.195Z,68742.94
2023-05-17T12:39:02.604Z,68722.28
2023-05-17T12:41:31.458Z,68680.06
2023-05-17T12:44:13.804Z,68568.69
2023-05-17T12:46:43.820Z,68537.47
2023-05-17T12:49:12.832Z,68557.94
2023-05-17T12:51:45.832Z,68536.16
2023-05-17T12:54:27.056Z,68544.47
2023-05-17T12:56:55.207Z,68646.88
2023-05-17T12:59:25.743Z,68749.41
2023-05-17T13:01:56.720Z,68796.03
2023-05-17T13:04:32.941Z,68738.41
2023-05-17T13:07:02.988Z,68581.00
2023-05-17T13:09:32.823Z,68555.06
2023-05-17T13:12:08.119Z,68662.06
2023-05-17T13:14:46.200Z,68703.13
2023-05-17T13:17:45.240Z,68710.53
2023-05-17T13:20:12.903Z,68719.47
2023-05-17T13:22:47.599Z,68777.06
2023-05-17T13:25:15.988Z,68783.34
2023-05-17T13:27:48.635Z,68792.97
2023-05-17T13:30:16.820Z,68793.38
2023-05-17T13:32:45.274Z,68805.50
2023-05-17T13:35:14.814Z,68724.00
2023-05-17T13:37:42.636Z,68672.50
2023-05-17T13:40:11.094Z,68731.03
2023-05-17T13:42:39.279Z,68771.75
2023-05-17T13:45:09.384Z,68766.63
2023-05-17T13:47:37.579Z,68814.41
2023-05-17T13:50:06.337Z,68838.13
2023-05-17T13:52:34.719Z,68807.97
2023-05-17T13:55:02.443Z,68746.16
2023-05-17T13:57:30.057Z,68773.44
2023-05-17T13:59:57.686Z,68798.84
2023-05-17T14:02:25.457Z,68793.16
2023-05-17T14:04:52.841Z,68783.13
2023-05-17T14:07:20.710Z,68804.00
2023-05-17T14:09:48.374Z,68722.69
2023-05-17T14:12:16.747Z,68647.25
2023-05-17T14:14:44.602Z,68642.34
2023-05-17T14:17:12.674Z,68662.06
2023-05-17T14:19:40.731Z,68698.81
2023-05-17T14:22:09.881Z,68768.34
2023-05-17T14:24:38.679Z,68836.03
2023-05-17T14:27:06.497Z,68834.72
2023-05-17T14:29:33.952Z,68842.09
2023-05-17T14:32:01.324Z,68844.94
2023-05-17T14:34:28.886Z,68765.09
2023-05-17T14:36:56.818Z,68777.25
2023-05-17T14:39:24.427Z,68802.84
2023-05-17T14:41:51.727Z,68812.63
2023-05-17T14:44:19.174Z,68821.44
2023-05-17T14:46:46.751Z,68789.38
2023-05-17T14:49:14.296Z,68778.56
2023-05-17T14:51:42.448Z,68732.34
2023-05-17T14:54:11.117Z,68681.38
2023-05-17T14:56:40.927Z,68697.28
2023-05-17T14:59:10.372Z,68724.38
2023-05-17T15:01:38.328Z,68753.56
2023-05-17T15:04:05.828Z,68782.38
2023-05-17T15:06:33.439Z,68806.09
2023-05-17T15:09:02.458Z,68818.78
2023-05-17T15:11:30.556Z,68793.00
2023-05-17T15:13:58.391Z,68763.78
2023-05-17T15:16:26.293Z,68768.16
2023-05-17T15:18:55.515Z,68718.88
2023-05-17T15:21:25.530Z,68709.41
2023-05-17T15:23:53.348Z,68741.44
2023-05-17T15:26:21.792Z,68744.28
2023-05-17T15:28:52.306Z,68732.91
2023-05-17T15:31:20.837Z,68759.06
2023-05-17T15:33:48.854Z,68803.06
2023-05-17T15:36:16.818Z,68822.16
2023-05-17T15:38:44.526Z,68816.91
2023-05-17T15:41:14.492Z,68816.13
2023-05-17T15:43:42.486Z,68846.06
2023-05-17T15:46:10.655Z,68798.28
2023-05-17T15:48:40.934Z,68768.53
2023-05-17T15:51:08.788Z,68753.19
2023-05-17T15:53:36.983Z,68748.63
2023-05-17T15:56:04.955Z,68753.94
2023-05-17T15:58:35.719Z,68716.81
2023-05-17T16:01:07.311Z,68729.69
2023-05-17T16:03:35.026Z,68731.19
2023-05-17T16:06:04.509Z,68723.44
2023-05-17T16:08:32.223Z,68747.47
2023-05-17T16:11:02.073Z,68760.38
2023-05-17T16:13:31.231Z,68730.44
2023-05-17T16:16:00.056Z,68686.69
2023-05-17T16:18:28.475Z,68713.41
2023-05-17T16:21:02.196Z,68686.44
2023-05-17T16:23:30.112Z,68737.06
2023-05-17T16:25:58.178Z,68762.66
2023-05-17T16:28:25.850Z,68749.97
2023-05-17T16:30:53.497Z,68741.63
2023-05-17T16:33:21.596Z,68756.78
2023-05-17T16:35:49.654Z,68759.03
2023-05-17T16:38:17.099Z,68773.28
2023-05-17T16:40:45.867Z,68756.97
2023-05-17T16:43:16.221Z,68754.50
2023-05-17T16:45:44.933Z,68756.78
2023-05-17T16:48:14.202Z,68755.81
2023-05-17T16:50:42.741Z,68745.03
2023-05-17T16:53:10.315Z,68743.50
2023-05-17T16:55:38.175Z,68711.31
2023-05-17T16:58:06.316Z,68696.72
2023-05-17T17:00:33.977Z,68691.59
2023-05-17T17:03:02.016Z,68716.25
2023-05-17T17:05:29.693Z,68745.59
2023-05-17T17:07:57.910Z,68768.53
2023-05-17T17:10:25.590Z,68765.69
2023-05-17T17:12:53.188Z,68757.72
2023-05-17T17:15:21.055Z,68757.34
2023-05-17T17:17:48.491Z,68737.63
2023-05-17T17:20:16.110Z,68742.56
2023-05-17T17:22:43.633Z,68730.63
2023-05-17T17:25:11.291Z,68736.13
2023-05-17T17:27:38.951Z,68707.91
2023-05-17T17:30:07.301Z,68694.25
2023-05-17T17:32:35.094Z,68683.84
2023-05-17T17:35:02.826Z,68699.38
2023-05-17T17:37:30.706Z,68679.09
2023-05-17T17:39:57.971Z,68690.84
2023-05-17T17:42:25.329Z,68677.41
2023-05-17T17:44:54.032Z,68658.44
2023-05-17T17:47:21.458Z,68648.41
2023-05-17T17:49:48.957Z,68634.41
2023-05-17T17:52:16.443Z,68635.75
2023-05-17T17:54:45.969Z,68611.69
2023-05-17T17:57:13.716Z,68593.13
2023-05-17T17:59:41.073Z,68563.59
2023-05-17T18:02:08.478Z,68559.63
2023-05-17T18:04:35.976Z,68557.94
2023-05-17T18:07:03.447Z,68548.06
2023-05-17T18:09:31.116Z,68530.47
2023-05-17T18:11:59.695Z,68520.47
2023-05-17T18:14:27.694Z,68513.25
2023-05-17T18:16:55.756Z,68511.19
2023-05-17T18:19:23.435Z,68500.56
2023-05-17T18:21:51.022Z,68490.19
2023-05-17T18:24:19.106Z,68483.91
2023-05-17T18:26:46.583Z,68477.13
2023-05-17T18:29:14.038Z,68469.91
2023-05-17T18:31:41.723Z,68471.06
2023-05-17T18:34:09.524Z,68463.69
2023-05-17T18:36:36.928Z,68445.53
2023-05-17T18:39:05.817Z,68443.63
2023-05-17T18:41:33.326Z,68439.66
2023-05-17T18:44:02.942Z,68431.16
2023-05-17T18:46:30.564Z,68420.38
2023-05-17T18:48:58.170Z,68412.44
2023-05-17T18:51:25.829Z,68406.97
2023-05-17T18:53:53.835Z,68398.47
2023-05-17T18:56:23.396Z,68392.59
2023-05-17T18:58:53.113Z,68381.25
2023-05-17T19:01:21.157Z,68369.34
2023-05-17T19:03:51.587Z,68356.13
2023-05-17T19:06:19.752Z,68355.56
2023-05-17T19:08:50.149Z,68349.13
2023-05-17T19:11:18.345Z,68347.97
2023-05-17T19:13:46.100Z,68353.09
2023-05-17T19:16:15.772Z,68343.84
2023-05-17T19:19:43.693Z,68329.84
2023-05-17T19:22:12.063Z,68311.88
2023-05-17T19:24:39.543Z,68312.25
2023-05-17T19:27:07.074Z,68323.97
2023-05-17T19:29:34.926Z,68324.38
2023-05-17T19:32:02.827Z,68336.84
2023-05-17T19:34:30.418Z,68355.19
2023-05-17T19:36:58.854Z,68341.19
2023-05-17T19:39:26.341Z,68345.72
2023-05-17T19:42:09.069Z,68338.16
2023-05-17T19:44:39.831Z,68326.44
2023-05-17T19:47:14.406Z,68335.34
2023-05-17T19:49:43.358Z,68329.28
2023-05-17T19:52:11.573Z,68319.44
2023-05-17T19:54:39.251Z,68323.97
2023-05-17T19:57:07.785Z,68303.56
2023-05-17T19:59:35.570Z,68309.81
2023-05-17T20:02:06.403Z,68302.81
2023-05-17T20:04:34.652Z,68296.19
2023-05-17T20:07:02.150Z,68284.13
2023-05-17T20:09:30.522Z,68264.09
2023-05-17T20:11:58.896Z,68262.59
2023-05-17T20:14:27.896Z,68271.25
2023-05-17T20:16:55.887Z,68273.72
2023-05-17T20:19:23.849Z,68258.25
2023-05-17T20:21:51.463Z,68239.94
2023-05-17T20:24:19.524Z,68246.53
2023-05-17T20:26:49.200Z,68237.09
2023-05-17T20:29:16.662Z,68240.31
2023-05-17T20:31:44.161Z,68249.00
2023-05-17T20:34:12.057Z,68234.66
2023-05-17T20:36:39.723Z,68230.69
2023-05-17T20:39:07.252Z,68226.50
2023-05-17T20:41:35.545Z,68223.13
2023-05-17T20:44:03.224Z,68233.69
2023-05-17T20:46:30.929Z,68227.09
2023-05-17T20:48:58.667Z,68228.03
2023-05-17T20:51:27.600Z,68221.44
2023-05-17T20:53:55.120Z,68217.25
2023-05-17T20:56:22.525Z,68211.81
2023-05-17T20:58:50.022Z,68212.53
2023-05-17T21:01:17.712Z,68202.34
2023-05-17T21:03:46.689Z,68188.75
2023-05-17T21:06:14.491Z,68187.25
2023-05-17T21:08:43.046Z,68189.69
2023-05-17T21:11:11.203Z,68183.47
2023-05-17T21:13:38.526Z,68175.38
2023-05-17T21:16:06.447Z,68175.34
2023-05-17T21:18:34.596Z,68164.78
2023-05-17T21:21:02.675Z,68167.63
2023-05-17T21:23:31.348Z,68170.81
2023-05-17T21:25:58.924Z,68172.16
2023-05-17T21:28:26.538Z,68171.97
2023-05-17T21:30:54.184Z,68160.66
2023-05-17T21:33:21.850Z,68165.38
2023-05-17T21:35:49.384Z,68165.16
2023-05-17T21:38:17.049Z,68151.41
2023-05-17T21:40:44.649Z,68151.19
2023-05-17T21:43:12.168Z,68159.31
2023-05-17T21:45:41.264Z,68160.81
2023-05-17T21:48:09.263Z,68147.81
2023-05-17T21:50:36.782Z,68149.50
2023-05-17T21:53:04.384Z,68145.53
2023-05-17T21:55:40.880Z,68138.19
2023-05-17T21:58:21.364Z,68126.69
2023-05-17T22:00:48.874Z,68142.16
2023-05-17T22:03:16.725Z,68132.94
2023-05-17T22:05:44.267Z,68138.56
2023-05-17T22:08:11.748Z,68135.16
2023-05-17T22:10:40.552Z,68123.31
2023-05-17T22:13:12.672Z,68116.47
2023-05-17T22:15:41.878Z,68107.78
2023-05-17T22:18:12.518Z,68111.56
2023-05-17T22:20:40.132Z,68110.63
2023-05-17T22:23:07.731Z,68096.13
2023-05-17T22:25:35.647Z,68102.31
2023-05-17T22:28:03.410Z,68098.53
2023-05-17T22:30:31.424Z,68100.81
2023-05-17T22:32:59.368Z,68097.63
2023-05-17T22:35:26.856Z,68091.78
2023-05-17T22:37:54.353Z,68075.56
2023-05-17T22:40:21.856Z,68076.88
2023-05-17T22:42:51.623Z,68075.56
2023-05-17T22:45:19.112Z,68063.88
2023-05-17T22:47:46.997Z,68070.25
2023-05-17T22:50:15.699Z,68069.13
2023-05-17T22:52:43.523Z,68044.63
2023-05-17T22:55:11.391Z,68052.53
2023-05-17T22:57:38.818Z,68045.56
2023-05-17T23:00:09.231Z,68043.09
2023-05-17T23:02:36.838Z,68031.63
2023-05-17T23:05:04.930Z,68023.69
2023-05-17T23:07:37.137Z,68030.66
2023-05-17T23:10:06.945Z,68036.88
2023-05-17T23:12:36.267Z,68022.38
2023-05-17T23:15:05.167Z,68021.59
2023-05-17T23:17:34.141Z,68008.44
2023-05-17T23:20:02.690Z,68003.69
2023-05-17T23:22:31.710Z,67996.00
2023-05-17T23:24:59.236Z,67988.63
2023-05-17T23:27:27.864Z,67979.41
2023-05-17T23:29:55.444Z,67969.03
2023-05-17T23:32:23.460Z,67957.91
2023-05-17T23:34:54.259Z,67945.09
2023-05-17T23:37:21.811Z,67938.88
2023-05-17T23:39:49.225Z,67945.84
2023-05-17T23:42:16.651Z,67953.75
2023-05-17T23:44:45.041Z,67950.38
2023-05-17T23:47:13.250Z,67946.97
2023-05-17T23:49:40.838Z,67937.56
2023-05-17T23:52:11.138Z,67907.56
2023-05-17T23:54:39.809Z,67952.06
2023-05-17T23:57:08.900Z,67956.78
2023-05-17T23:59:36.799Z,67958.09
